Time;durP1;ratioP1;P1;durP2;ratioP2;P2;SDS_P1;SDS_P2;PMS_P1;PMS_P2;Temp;Humidity;BMP_temperature;BMP_pressure;BME280_temperature;BME280_humidity;BME280_pressure;Samples;Min_cycle;Max_cycle;Signal;HPM_P1;HPM_P2
2023/10/30 00:00:34;;;;;;;;;4.00;2.00;;;;;14.71;100.00;99534.53;4973066;28;45309;-73
2023/10/30 00:03:00;;;;;;;;;2.33;2.33;;;;;14.71;100.00;99536.47;4974662;28;45341;-72
2023/10/30 00:05:25;;;;;;;;;3.67;1.33;;;;;14.91;100.00;99539.34;4978837;28;45360;-71
2023/10/30 00:07:51;;;;;;;;;6.67;2.67;;;;;14.80;100.00;99529.34;4974097;28;45826;-72
2023/10/30 00:10:16;;;;;;;;;1.00;1.00;;;;;14.95;100.00;99529.41;4964580;28;45550;-72
2023/10/30 00:12:44;;;;;;;;;4.00;2.33;;;;;15.05;100.00;99541.63;4973368;28;45475;-72
2023/10/30 00:15:10;;;;;;;;;4.33;2.67;;;;;15.02;100.00;99533.88;4967997;28;45569;-72
2023/10/30 00:17:36;;;;;;;;;1.00;1.00;;;;;15.10;100.00;99536.13;4955515;28;46611;-72
2023/10/30 00:20:01;;;;;;;;;1.33;1.00;;;;;15.14;100.00;99548.31;4961486;28;45773;-71
2023/10/30 00:22:26;;;;;;;;;2.00;2.00;;;;;15.16;100.00;99544.19;4966011;28;45518;-72
2023/10/30 00:24:52;;;;;;;;;4.00;3.00;;;;;15.06;100.00;99529.47;4982121;28;45756;-73
2023/10/30 00:27:17;;;;;;;;;2.67;1.00;;;;;15.17;100.00;99550.53;4977605;28;45499;-72
2023/10/30 00:29:43;;;;;;;;;3.67;3.00;;;;;15.18;100.00;99541.16;4976645;28;45765;-71
2023/10/30 00:32:08;;;;;;;;;4.00;1.67;;;;;15.19;100.00;99537.25;4974876;28;45780;-72
2023/10/30 00:34:34;;;;;;;;;1.33;1.33;;;;;15.20;100.00;99533.41;4958843;28;45723;-71
2023/10/30 00:37:00;;;;;;;;;3.00;2.00;;;;;15.25;100.00;99532.59;4976572;28;45282;-72
2023/10/30 00:39:27;;;;;;;;;3.67;2.00;;;;;15.25;100.00;99529.84;4978102;28;45475;-71
2023/10/30 00:41:53;;;;;;;;;2.67;2.67;;;;;15.21;100.00;99529.56;4978390;28;45721;-73
2023/10/30 00:44:18;;;;;;;;;0.67;0.67;;;;;15.07;100.00;99511.81;4974062;28;45355;-70
2023/10/30 00:46:44;;;;;;;;;3.00;1.00;;;;;15.12;100.00;99525.63;4973356;28;45349;-72
2023/10/30 00:49:09;;;;;;;;;2.00;1.00;;;;;15.06;100.00;99521.19;4978140;28;46003;-73
2023/10/30 00:51:34;;;;;;;;;1.00;1.00;;;;;15.00;100.00;99517.59;4961220;28;45752;-72
2023/10/30 00:54:00;;;;;;;;;4.00;1.00;;;;;14.93;100.00;99523.34;4979150;28;45478;-72
2023/10/30 00:56:25;;;;;;;;;2.33;1.00;;;;;14.91;100.00;99531.06;4960197;28;45996;-72
2023/10/30 00:58:50;;;;;;;;;2.00;1.00;;;;;14.87;100.00;99529.94;4977336;28;46161;-73
2023/10/30 01:01:17;;;;;;;;;2.33;1.00;;;;;14.87;100.00;99535.44;4963574;28;45765;-72
2023/10/30 01:03:43;;;;;;;;;2.67;0.33;;;;;14.78;100.00;99520.50;4974614;28;45507;-72
2023/10/30 01:06:09;;;;;;;;;2.00;0.67;;;;;14.85;100.00;99534.06;4976330;28;46098;-72
2023/10/30 01:08:34;;;;;;;;;2.00;2.00;;;;;14.62;100.00;99525.91;4966905;28;48262;-72
2023/10/30 01:10:59;;;;;;;;;0.00;0.00;;;;;14.74;100.00;99527.66;4961667;28;45620;-72
2023/10/30 01:13:25;;;;;;;;;1.67;1.00;;;;;14.59;100.00;99531.94;4958125;28;45589;-72
2023/10/30 01:15:55;;;;;;;;;1.00;1.00;;;;;14.69;100.00;99531.22;4977678;28;45628;-71
2023/10/30 01:18:21;;;;;;;;;1.00;1.00;;;;;14.67;100.00;99518.75;4977815;28;45564;-71
2023/10/30 01:20:49;;;;;;;;;2.00;0.00;;;;;14.62;100.00;99523.16;4962319;28;45525;-70
2023/10/30 01:23:15;;;;;;;;;3.00;1.00;;;;;14.62;100.00;99520.38;4955656;28;45347;-71
2023/10/30 01:25:41;;;;;;;;;3.00;2.00;;;;;14.54;100.00;99512.59;4978062;28;45857;-70
2023/10/30 01:28:06;;;;;;;;;2.00;1.00;;;;;14.57;100.00;99508.47;4977004;28;45965;-71
2023/10/30 01:30:31;;;;;;;;;3.00;0.00;;;;;14.54;100.00;99507.06;4977827;28;45768;-73
2023/10/30 01:32:57;;;;;;;;;2.00;1.00;;;;;14.52;100.00;99500.16;4978159;28;45322;-71
2023/10/30 01:35:22;;;;;;;;;1.67;1.00;;;;;14.48;100.00;99500.69;4979757;28;45682;-71
2023/10/30 01:37:47;;;;;;;;;2.67;2.67;;;;;14.41;100.00;99486.28;4986344;28;45622;-70
2023/10/30 01:40:14;;;;;;;;;4.00;3.00;;;;;14.37;100.00;99489.84;4977000;28;45324;-71
2023/10/30 01:42:39;;;;;;;;;4.33;2.67;;;;;14.21;100.00;99489.75;4951601;28;45597;-71
2023/10/30 01:45:05;;;;;;;;;2.00;1.00;;;;;14.03;100.00;99449.63;4975262;28;45792;-71
2023/10/30 01:47:31;;;;;;;;;2.00;2.00;;;;;14.19;100.00;99493.84;4976230;28;45676;-71
2023/10/30 01:49:57;;;;;;;;;4.00;2.00;;;;;14.11;100.00;99486.91;4976965;28;45455;-70
2023/10/30 01:52:23;;;;;;;;;3.33;1.00;;;;;14.06;100.00;99481.34;4977662;28;45793;-70
2023/10/30 01:54:50;;;;;;;;;1.00;1.00;;;;;14.01;100.00;99489.56;4977555;28;45809;-71
2023/10/30 01:57:18;;;;;;;;;1.00;1.00;;;;;13.95;100.00;99474.91;4977991;28;45289;-71
2023/10/30 01:59:45;;;;;;;;;3.33;1.00;;;;;13.82;100.00;99465.16;4976070;28;45451;-72
2023/10/30 02:02:11;;;;;;;;;1.67;0.00;;;;;13.81;100.00;99466.25;4967285;28;45867;-71
2023/10/30 02:04:37;;;;;;;;;1.67;1.00;;;;;13.82;100.00;99481.69;4958476;28;47384;-71
2023/10/30 02:07:05;;;;;;;;;1.67;1.33;;;;;13.70;100.00;99459.00;4941162;28;48331;-71
2023/10/30 02:09:31;;;;;;;;;1.00;1.00;;;;;13.71;100.00;99464.25;4955754;28;45930;-72
2023/10/30 02:11:57;;;;;;;;;1.00;0.67;;;;;13.63;100.00;99461.13;4970313;28;45511;-71
2023/10/30 02:14:24;;;;;;;;;5.33;0.67;;;;;13.58;100.00;99475.69;4974076;28;45599;-70
2023/10/30 02:16:49;;;;;;;;;4.00;1.00;;;;;13.52;100.00;99469.28;4974457;28;45778;-71
2023/10/30 02:19:22;;;;;;;;;3.00;1.00;;;;;13.48;100.00;99468.13;4956754;28;45772;-69
2023/10/30 02:21:47;;;;;;;;;3.33;1.00;;;;;13.44;100.00;99467.00;4973104;28;45409;-69
2023/10/30 02:24:15;;;;;;;;;4.33;1.00;;;;;13.41;100.00;99470.25;4960616;28;45869;-71
2023/10/30 02:26:40;;;;;;;;;1.33;1.33;;;;;13.50;100.00;99454.09;4975003;28;45775;-70
2023/10/30 02:29:06;;;;;;;;;1.00;1.00;;;;;13.64;100.00;99468.28;4975685;28;45490;-69
2023/10/30 02:31:32;;;;;;;;;2.67;2.67;;;;;13.60;100.00;99462.47;4974214;28;45384;-70
2023/10/30 02:33:59;;;;;;;;;3.33;2.00;;;;;13.48;100.00;99443.34;4968706;28;45802;-70
2023/10/30 02:36:25;;;;;;;;;3.33;0.00;;;;;13.44;100.00;99442.19;4961992;28;46215;-71
2023/10/30 02:38:51;;;;;;;;;2.33;1.67;;;;;13.52;100.00;99463.78;4975315;28;45360;-69
2023/10/30 02:41:17;;;;;;;;;2.00;0.33;;;;;13.51;100.00;99462.09;4975773;28;45619;-72
2023/10/30 02:43:42;;;;;;;;;3.00;1.00;;;;;13.49;100.00;99455.19;4974259;28;45367;-71
2023/10/30 02:46:08;;;;;;;;;5.67;1.67;;;;;13.49;100.00;99450.53;4975414;28;45366;-70
2023/10/30 02:48:33;;;;;;;;;1.67;0.67;;;;;13.46;100.00;99456.56;4975251;28;45510;-70
2023/10/30 02:50:58;;;;;;;;;3.33;0.67;;;;;13.46;100.00;99451.06;4975281;28;45874;-71
2023/10/30 02:53:24;;;;;;;;;2.33;1.00;;;;;13.47;100.00;99454.63;4963872;28;45927;-70
2023/10/30 02:55:49;;;;;;;;;2.00;1.00;;;;;13.48;100.00;99468.13;4975867;28;45723;-70
2023/10/30 02:58:14;;;;;;;;;3.00;0.00;;;;;13.48;100.00;99448.84;4976086;28;45511;-70
2023/10/30 03:00:40;;;;;;;;;0.67;0.67;;;;;13.34;100.00;99431.94;4974468;28;45614;-71
2023/10/30 03:03:05;;;;;;;;;0.33;0.00;;;;;13.52;100.00;99452.75;4959010;28;47153;-72
2023/10/30 03:05:31;;;;;;;;;0.67;0.67;;;;;13.44;100.00;99428.44;4975198;28;46474;-72
2023/10/30 03:07:56;;;;;;;;;5.67;4.33;;;;;13.52;100.00;99449.19;4969956;28;45496;-72
2023/10/30 03:10:22;;;;;;;;;1.00;0.67;;;;;13.48;100.00;99440.59;4964315;28;45820;-72
2023/10/30 03:12:48;;;;;;;;;5.33;1.00;;;;;13.45;100.00;99441.13;4979933;28;45818;-70
2023/10/30 03:15:13;;;;;;;;;1.33;0.67;;;;;13.42;100.00;99433.38;4968689;28;47141;-71
2023/10/30 03:17:39;;;;;;;;;1.00;1.00;;;;;13.37;100.00;99425.06;4969731;28;45385;-70
2023/10/30 03:20:07;;;;;;;;;2.00;2.00;;;;;13.31;100.00;99420.56;4975398;28;44795;-70
2023/10/30 03:22:33;;;;;;;;;5.67;1.67;;;;;13.27;100.00;99413.94;4955475;28;45747;-71
2023/10/30 03:24:59;;;;;;;;;7.67;2.33;;;;;13.23;100.00;99413.59;4981204;28;45363;-71
2023/10/30 03:27:24;;;;;;;;;4.67;0.67;;;;;13.22;100.00;99411.97;4979594;28;45738;-72
2023/10/30 03:29:50;;;;;;;;;2.00;1.67;;;;;13.22;100.00;99418.28;4962404;28;45487;-69
2023/10/30 03:32:15;;;;;;;;;0.67;0.33;;;;;13.20;100.00;99408.59;4974328;28;45419;-70
2023/10/30 03:34:41;;;;;;;;;1.33;1.33;;;;;13.17;100.00;99401.72;4977086;28;45429;-71
2023/10/30 03:37:07;;;;;;;;;3.67;2.00;;;;;13.15;100.00;99409.38;4975263;28;45824;-72
2023/10/30 03:39:32;;;;;;;;;0.33;0.33;;;;;13.13;100.00;99396.97;4964080;28;45397;-71
2023/10/30 03:41:58;;;;;;;;;4.00;0.67;;;;;13.14;100.00;99399.47;4969899;28;45418;-72
2023/10/30 03:44:26;;;;;;;;;3.00;1.67;;;;;13.03;100.00;99395.78;4974865;28;46704;-71
2023/10/30 03:46:51;;;;;;;;;4.67;2.67;;;;;13.02;100.00;99396.03;4974691;28;45479;-71
2023/10/30 03:49:17;;;;;;;;;1.67;1.67;;;;;13.23;100.00;99400.69;4963165;28;45249;-70
2023/10/30 03:51:42;;;;;;;;;3.33;0.67;;;;;13.24;100.00;99405.06;4973794;28;45674;-69
2023/10/30 03:54:08;;;;;;;;;4.67;1.00;;;;;13.17;100.00;99409.97;4967012;28;46164;-69
2023/10/30 03:56:34;;;;;;;;;2.67;1.33;;;;;13.31;100.00;99404.03;4975391;28;45836;-72
2023/10/30 03:58:59;;;;;;;;;2.00;1.33;;;;;13.23;100.00;99381.41;4961180;28;45437;-70
2023/10/30 04:01:24;;;;;;;;;3.00;1.00;;;;;13.37;100.00;99403.06;4974307;28;45991;-71
2023/10/30 04:03:50;;;;;;;;;1.33;1.00;;;;;13.39;100.00;99395.34;4975100;28;45990;-72
2023/10/30 04:06:16;;;;;;;;;7.50;4.00;;;;;13.44;100.00;99400.88;4974617;28;45348;-74
2023/10/30 04:08:41;;;;;;;;;3.33;0.33;;;;;13.46;100.00;99393.22;4968767;28;45847;-72
2023/10/30 04:11:15;;;;;;;;;2.67;1.33;;;;;13.50;100.00;99402.63;4975421;28;45490;-71
2023/10/30 04:13:40;;;;;;;;;3.00;1.33;;;;;13.51;100.00;99393.25;4975115;28;46965;-70
2023/10/30 04:16:09;;;;;;;;;1.00;1.00;;;;;13.55;100.00;99386.13;4962848;28;45542;-71
2023/10/30 04:18:34;;;;;;;;;3.33;2.00;;;;;13.58;100.00;99385.59;4964432;28;45380;-70
2023/10/30 04:21:00;;;;;;;;;2.33;1.00;;;;;13.60;100.00;99388.91;4974451;28;45241;-72
2023/10/30 04:23:26;;;;;;;;;2.00;2.00;;;;;13.63;100.00;99389.50;4974530;28;45689;-72
2023/10/30 04:25:52;;;;;;;;;1.00;1.00;;;;;13.65;100.00;99379.03;4974190;28;45686;-71
2023/10/30 04:28:17;;;;;;;;;3.00;1.67;;;;;13.70;100.00;99390.13;4973800;28;45431;-69
2023/10/30 04:30:43;;;;;;;;;2.67;2.67;;;;;13.76;100.00;99384.38;4974534;28;45381;-70
2023/10/30 04:33:11;;;;;;;;;1.67;1.67;;;;;13.82;100.00;99398.19;4965072;28;45424;-71
2023/10/30 04:35:36;;;;;;;;;3.00;3.00;;;;;13.99;100.00;99414.59;4972604;28;45708;-72
2023/10/30 04:38:02;;;;;;;;;3.33;1.33;;;;;14.07;100.00;99411.31;4973658;28;45633;-71
2023/10/30 04:40:27;;;;;;;;;1.67;1.00;;;;;14.14;100.00;99417.44;4973582;28;45448;-72
2023/10/30 04:42:52;;;;;;;;;3.00;2.00;;;;;14.15;100.00;99412.75;4968912;28;45521;-72
2023/10/30 04:45:18;;;;;;;;;7.00;4.67;;;;;14.20;100.00;99421.88;4963157;28;46473;-71
2023/10/30 04:47:43;;;;;;;;;4.67;2.00;;;;;14.24;100.00;99416.69;4965164;28;45788;-72
2023/10/30 04:50:09;;;;;;;;;2.00;2.00;;;;;14.24;100.00;99425.78;4973506;28;45834;-71
2023/10/30 04:52:34;;;;;;;;;1.00;1.00;;;;;14.05;100.00;99402.50;4972684;28;48098;-73
2023/10/30 04:55:00;;;;;;;;;3.00;1.67;;;;;14.10;100.00;99416.31;4973362;28;45322;-74
2023/10/30 04:57:25;;;;;;;;;3.00;2.00;;;;;14.12;100.00;99408.63;4972063;28;45375;-74
2023/10/30 04:59:50;;;;;;;;;7.00;3.67;;;;;14.12;100.00;99398.41;4973874;28;45427;-71
2023/10/30 05:02:16;;;;;;;;;5.33;2.33;;;;;14.07;100.00;99386.50;4973811;28;45963;-68
2023/10/30 05:04:41;;;;;;;;;5.00;2.00;;;;;13.94;100.00;99383.13;4973638;28;45408;-69
2023/10/30 05:07:06;;;;;;;;;1.33;1.33;;;;;14.03;100.00;99382.66;4973401;28;45469;-67
2023/10/30 05:09:32;;;;;;;;;3.67;2.00;;;;;14.02;100.00;99375.47;4953143;28;46007;-67
2023/10/30 05:11:58;;;;;;;;;2.67;1.00;;;;;14.01;100.00;99379.31;4972117;28;45966;-70
2023/10/30 05:14:24;;;;;;;;;3.67;2.67;;;;;13.99;100.00;99370.47;4953222;28;45413;-68
2023/10/30 05:16:49;;;;;;;;;2.00;2.00;;;;;14.13;100.00;99369.75;4953407;28;45648;-68
2023/10/30 05:19:14;;;;;;;;;4.00;1.33;;;;;13.89;100.00;99354.69;4971720;28;46327;-69
2023/10/30 05:21:40;;;;;;;;;1.33;1.33;;;;;14.05;100.00;99358.38;4973061;28;45788;-68
2023/10/30 05:24:06;;;;;;;;;3.00;2.00;;;;;14.10;100.00;99363.91;4965504;28;45658;-69
2023/10/30 05:26:31;;;;;;;;;3.00;2.00;;;;;13.95;100.00;99354.47;4949938;28;45769;-71
2023/10/30 05:28:57;;;;;;;;;5.00;2.00;;;;;14.13;100.00;99350.44;4957261;28;45848;-69
2023/10/30 05:31:22;;;;;;;;;2.67;2.00;;;;;14.11;100.00;99352.63;4958145;28;48012;-69
2023/10/30 05:33:47;;;;;;;;;2.00;2.00;;;;;14.14;100.00;99351.28;4963774;28;45766;-70
2023/10/30 05:36:13;;;;;;;;;4.00;1.67;;;;;14.06;100.00;99340.75;4976132;28;45703;-70
2023/10/30 05:38:38;;;;;;;;;1.33;0.33;;;;;14.07;100.00;99334.13;4956819;28;45736;-70
2023/10/30 05:41:04;;;;;;;;;1.67;1.00;;;;;14.13;100.00;99347.69;4956810;28;48056;-71
2023/10/30 05:43:29;;;;;;;;;3.00;1.00;;;;;14.12;100.00;99343.28;4963227;28;45414;-72
2023/10/30 05:45:56;;;;;;;;;7.67;2.33;;;;;13.97;100.00;99353.34;4965457;28;45676;-70
2023/10/30 05:48:21;;;;;;;;;2.33;2.33;;;;;13.93;100.00;99358.59;4966828;28;45282;-70
2023/10/30 05:50:47;;;;;;;;;3.00;1.33;;;;;13.92;100.00;99355.00;4965203;28;45409;-71
2023/10/30 05:53:12;;;;;;;;;8.00;4.33;;;;;13.93;100.00;99367.66;4965087;28;44892;-71
2023/10/30 05:55:37;;;;;;;;;7.67;4.67;;;;;13.92;100.00;99368.78;4972852;28;46272;-70
2023/10/30 05:58:03;;;;;;;;;4.33;3.00;;;;;14.05;100.00;99372.16;4976648;28;45397;-72
2023/10/30 06:00:29;;;;;;;;;4.67;2.00;;;;;13.99;100.00;99373.25;4972160;28;46075;-68
2023/10/30 06:02:55;;;;;;;;;2.67;2.00;;;;;14.11;100.00;99363.66;4970751;28;45310;-70
2023/10/30 06:05:21;;;;;;;;;2.00;2.00;;;;;14.25;100.00;99357.66;4973256;28;45518;-70
2023/10/30 06:07:47;;;;;;;;;2.00;1.00;;;;;14.05;100.00;99342.66;4975388;28;45814;-71
2023/10/30 06:10:13;;;;;;;;;5.67;2.67;;;;;13.92;100.00;99335.72;4971614;28;45436;-70
2023/10/30 06:12:39;;;;;;;;;4.00;2.00;;;;;13.99;100.00;99360.28;4975828;28;45482;-70
2023/10/30 06:15:07;;;;;;;;;1.00;1.00;;;;;14.01;100.00;99362.75;4976476;28;45776;-72
2023/10/30 06:17:32;;;;;;;;;3.67;2.67;;;;;14.11;100.00;99379.38;4956635;28;46029;-70
2023/10/30 06:19:58;;;;;;;;;4.33;2.00;;;;;14.07;100.00;99361.69;4969533;28;46242;-73
2023/10/30 06:22:23;;;;;;;;;2.00;2.00;;;;;14.17;100.00;99367.28;4976413;28;45277;-72
2023/10/30 06:24:48;;;;;;;;;3.67;2.00;;;;;14.18;100.00;99354.34;4976563;28;46205;-69
2023/10/30 06:27:14;;;;;;;;;3.67;2.00;;;;;14.16;100.00;99346.34;4979738;28;45859;-71
2023/10/30 06:29:39;;;;;;;;;4.00;3.00;;;;;14.36;100.00;99340.09;4972393;28;45448;-70
2023/10/30 06:32:05;;;;;;;;;4.67;2.67;;;;;14.16;100.00;99346.34;4966689;28;45465;-70
2023/10/30 06:34:33;;;;;;;;;3.67;2.33;;;;;14.18;100.00;99351.59;4971970;28;45588;-70
2023/10/30 06:36:58;;;;;;;;;1.33;1.33;;;;;14.10;100.00;99347.38;4966440;28;45711;-72
2023/10/30 06:39:24;;;;;;;;;5.33;3.33;;;;;14.13;100.00;99360.63;4974104;28;45741;-78
2023/10/30 06:41:54;;;;;;;;;2.00;2.00;;;;;14.24;100.00;99372.56;4971800;28;45474;-73
2023/10/30 06:44:26;;;;;;;;;5.67;3.00;;;;;14.20;100.00;99368.69;4968164;28;45659;-70
2023/10/30 06:46:52;;;;;;;;;2.33;1.33;;;;;14.18;100.00;99373.66;4968255;28;45720;-71
2023/10/30 06:49:18;;;;;;;;;2.00;2.00;;;;;14.19;100.00;99373.38;4956166;28;47034;-73
2023/10/30 06:51:43;;;;;;;;;4.00;2.00;;;;;14.18;100.00;99370.88;4974780;28;45897;-70
2023/10/30 06:54:12;;;;;;;;;2.00;2.00;;;;;14.21;100.00;99379.44;4960236;28;45901;-71
2023/10/30 06:56:38;;;;;;;;;4.67;2.00;;;;;14.30;100.00;99377.84;4973603;28;45671;-70
2023/10/30 06:59:03;;;;;;;;;1.33;1.33;;;;;14.33;100.00;99378.41;4961381;28;45801;-71
2023/10/30 07:01:45;;;;;;;;;3.33;1.00;;;;;14.32;100.00;99374.00;4965783;28;45922;-73
2023/10/30 07:04:15;;;;;;;;;2.00;2.00;;;;;14.36;100.00;99350.31;4954006;28;45642;-74
2023/10/30 07:06:43;;;;;;;;;6.33;3.00;;;;;14.45;100.00;99348.69;4952693;28;45638;-75
2023/10/30 07:09:09;;;;;;;;;1.00;1.00;;;;;14.24;100.00;99345.00;4958972;28;45625;-76
2023/10/30 07:11:35;;;;;;;;;3.67;2.67;;;;;14.13;100.00;99338.56;4956786;28;45783;-74
2023/10/30 07:14:02;;;;;;;;;1.00;1.00;;;;;14.24;100.00;99343.06;4936864;28;46096;-73
2023/10/30 07:16:31;;;;;;;;;2.67;2.00;;;;;14.29;100.00;99342.25;4952594;28;45466;-75
2023/10/30 07:18:58;;;;;;;;;3.00;1.67;;;;;14.24;100.00;99343.06;4946442;28;46079;-73
2023/10/30 07:21:24;;;;;;;;;4.00;3.00;;;;;14.21;100.00;99340.84;4952865;28;45395;-75
2023/10/30 07:23:49;;;;;;;;;5.67;3.33;;;;;14.12;100.00;99343.28;4949044;28;45782;-74
2023/10/30 07:26:16;;;;;;;;;2.00;2.00;;;;;14.18;100.00;99344.13;4934933;28;46912;-73
2023/10/30 07:28:43;;;;;;;;;4.67;4.33;;;;;14.26;100.00;99332.56;4952821;28;46938;-73
2023/10/30 07:31:08;;;;;;;;;5.33;4.00;;;;;14.19;100.00;99323.75;4941605;28;45326;-74
2023/10/30 07:33:33;;;;;;;;;6.00;6.00;;;;;14.34;100.00;99344.19;4952847;28;45554;-73
2023/10/30 07:36:01;;;;;;;;;6.67;4.00;;;;;14.37;100.00;99333.47;4954172;28;45635;-74
2023/10/30 07:38:27;;;;;;;;;5.00;4.00;;;;;14.49;100.00;99344.28;4950597;28;45582;-73
2023/10/30 07:40:53;;;;;;;;;11.00;5.67;;;;;14.53;100.00;99334.34;4954536;28;45781;-74
2023/10/30 07:43:21;;;;;;;;;10.33;6.67;;;;;14.53;100.00;99326.06;4929667;28;45571;-72
2023/10/30 07:45:47;;;;;;;;;7.33;7.33;;;;;14.50;100.00;99321.09;4952095;28;45841;-75
2023/10/30 07:48:12;;;;;;;;;7.67;5.33;;;;;14.57;100.00;99332.72;4947836;28;48162;-72
2023/10/30 07:50:38;;;;;;;;;8.67;8.67;;;;;14.59;100.00;99324.19;4951287;28;45766;-75
2023/10/30 07:53:03;;;;;;;;;8.33;7.00;;;;;14.50;100.00;99318.34;4951367;28;45492;-73
2023/10/30 07:55:29;;;;;;;;;7.67;6.67;;;;;14.50;100.00;99332.13;4946833;28;46346;-74
2023/10/30 07:57:54;;;;;;;;;6.33;6.33;;;;;14.61;100.00;99335.78;4936858;28;45615;-74
2023/10/30 08:00:19;;;;;;;;;6.67;5.67;;;;;14.64;100.00;99338.84;4935967;28;45640;-74
2023/10/30 08:02:49;;;;;;;;;5.33;5.33;;;;;14.64;100.00;99333.34;4949929;28;45468;-73
2023/10/30 08:05:15;;;;;;;;;5.67;5.67;;;;;14.67;100.00;99331.13;4948689;28;45493;-75
2023/10/30 08:07:47;;;;;;;;;6.67;5.00;;;;;14.64;100.00;99311.25;4946690;28;45885;-74
2023/10/30 08:10:13;;;;;;;;;7.00;7.00;;;;;14.74;100.00;99315.97;4935042;28;45620;-73
2023/10/30 08:12:40;;;;;;;;;8.00;7.33;;;;;14.74;100.00;99310.44;4934884;28;45904;-74
2023/10/30 08:15:06;;;;;;;;;9.67;7.33;;;;;14.79;100.00;99309.63;4946227;28;45749;-73
2023/10/30 08:17:32;;;;;;;;;10.33;9.33;;;;;14.86;100.00;99307.44;4927691;28;47367;-76
2023/10/30 08:19:57;;;;;;;;;8.00;7.33;;;;;14.89;100.00;99308.84;4949722;28;45463;-75
2023/10/30 08:22:23;;;;;;;;;9.33;7.67;;;;;14.80;100.00;99303.84;4952803;28;45399;-73
2023/10/30 08:24:48;;;;;;;;;8.67;8.67;;;;;14.80;100.00;99314.88;4933240;28;47137;-74
2023/10/30 08:27:14;;;;;;;;;8.33;7.33;;;;;14.86;100.00;99301.91;4956125;28;46471;-71
2023/10/30 08:29:39;;;;;;;;;5.33;2.67;;;;;14.85;100.00;99313.22;4950548;28;45692;-72
2023/10/30 08:32:05;;;;;;;;;8.33;7.33;;;;;14.86;100.00;99326.75;4929225;28;45825;-73
2023/10/30 08:34:30;;;;;;;;;10.00;6.67;;;;;14.85;100.00;99319.59;4963439;28;45376;-72
2023/10/30 08:36:56;;;;;;;;;3.67;3.67;;;;;14.89;100.00;99306.91;4949018;28;46376;-72
2023/10/30 08:39:21;;;;;;;;;6.00;6.00;;;;;14.85;100.00;99311.31;4951282;28;45532;-71
2023/10/30 08:41:47;;;;;;;;;6.00;6.00;;;;;14.80;100.00;99308.53;4950345;28;45290;-72
2023/10/30 08:44:13;;;;;;;;;7.00;7.00;;;;;14.72;100.00;99303.56;4935239;28;45818;-74
2023/10/30 08:46:38;;;;;;;;;9.33;6.00;;;;;14.59;100.00;99299.34;4949521;28;45963;-75
2023/10/30 08:49:04;;;;;;;;;8.67;7.33;;;;;14.53;100.00;99308.72;4952949;28;45694;-75
2023/10/30 08:51:30;;;;;;;;;6.67;5.00;;;;;14.55;100.00;99303.72;4952893;28;45562;-75
2023/10/30 08:53:55;;;;;;;;;6.33;5.00;;;;;14.54;100.00;99296.59;4942110;28;45815;-74
2023/10/30 08:56:21;;;;;;;;;6.67;4.33;;;;;14.55;100.00;99300.97;4934730;28;48198;-73
2023/10/30 08:58:47;;;;;;;;;4.33;4.00;;;;;14.54;100.00;99289.13;4957053;28;45422;-73
2023/10/30 09:01:13;;;;;;;;;6.00;4.00;;;;;14.40;100.00;99287.97;4956595;28;45540;-73
2023/10/30 09:03:41;;;;;;;;;4.00;4.00;;;;;14.42;100.00;99286.59;4940560;28;45416;-72
2023/10/30 09:06:06;;;;;;;;;6.00;5.00;;;;;14.35;100.00;99280.50;4937057;28;47361;-74
2023/10/30 09:08:32;;;;;;;;;6.67;6.67;;;;;14.42;100.00;99274.75;4954402;28;45583;-73
2023/10/30 09:10:58;;;;;;;;;5.00;5.00;;;;;14.34;100.00;99289.03;4951172;28;45973;-73
2023/10/30 09:13:23;;;;;;;;;8.00;8.00;;;;;14.19;100.00;99276.03;4934759;28;46374;-76
2023/10/30 09:15:49;;;;;;;;;8.33;8.33;;;;;14.45;100.00;99285.25;4950129;28;46899;-72
2023/10/30 09:18:15;;;;;;;;;8.33;7.67;;;;;14.50;100.00;99284.41;4955895;28;45297;-73
2023/10/30 09:20:40;;;;;;;;;12.67;9.33;;;;;14.57;100.00;99282.25;4955343;28;45620;-82
2023/10/30 09:23:06;;;;;;;;;9.33;8.33;;;;;14.53;100.00;99270.91;4939830;28;45898;-78
2023/10/30 09:25:31;;;;;;;;;6.00;6.00;;;;;14.61;100.00;99267.66;4938934;28;47405;-78
2023/10/30 09:27:56;;;;;;;;;57.33;44.33;;;;;14.50;100.00;99249.38;4957253;28;45717;-75
2023/10/30 09:30:29;;;;;;;;;7.33;5.00;;;;;14.64;100.00;99267.13;4956913;28;45302;-77
2023/10/30 09:32:54;;;;;;;;;4.33;4.33;;;;;14.63;100.00;99267.38;4939249;28;45266;-74
2023/10/30 09:35:21;;;;;;;;;9.33;6.00;;;;;14.60;100.00;99263.19;4956152;28;47437;-75
2023/10/30 09:37:46;;;;;;;;;5.67;5.00;;;;;14.71;100.00;99277.06;4957055;28;45520;-74
2023/10/30 09:40:12;;;;;;;;;6.00;4.33;;;;;14.70;100.00;99275.38;4938791;28;45465;-73
2023/10/30 09:42:49;;;;;;;;;3.67;2.67;;;;;14.75;100.00;99278.19;4955915;28;46673;-77
2023/10/30 09:45:15;;;;;;;;;7.67;6.33;;;;;14.82;100.00;99276.81;4953449;28;46115;-76
2023/10/30 09:47:41;;;;;;;;;6.00;5.33;;;;;14.89;100.00;99281.22;4956170;28;45805;-78
2023/10/30 09:50:09;;;;;;;;;9.33;9.00;;;;;14.86;100.00;99288.13;4956588;28;45688;-77
2023/10/30 09:52:36;;;;;;;;;6.67;6.67;;;;;14.88;100.00;99285.94;4956904;28;46677;-78
2023/10/30 09:55:06;;;;;;;;;11.00;9.00;;;;;14.84;100.00;99293.09;4955839;28;46330;-77
2023/10/30 09:57:33;;;;;;;;;10.33;9.67;;;;;14.82;100.00;99293.38;4956371;28;45369;-78
2023/10/30 09:59:59;;;;;;;;;10.33;8.00;;;;;14.81;100.00;99293.66;4956443;28;45632;-78
2023/10/30 10:02:24;;;;;;;;;9.00;6.00;;;;;14.74;100.00;99284.78;4940152;28;45662;-79
2023/10/30 10:04:50;;;;;;;;;3.67;3.00;;;;;14.69;100.00;99284.78;4955896;28;46138;-77
2023/10/30 10:07:17;;;;;;;;;10.67;9.67;;;;;14.63;100.00;99275.66;4956027;28;45607;-78
2023/10/30 10:10:02;;;;;;;;;9.67;9.67;;;;;14.54;100.00;99264.28;4965182;28;45623;-76
2023/10/30 10:12:31;;;;;;;;;9.33;7.00;;;;;14.37;100.00;99260.91;4955461;28;45945;-76
2023/10/30 10:14:57;;;;;;;;;14.00;10.00;;;;;14.19;100.00;99251.22;4955193;28;46555;-73
2023/10/30 10:17:23;;;;;;;;;9.33;8.67;;;;;14.07;100.00;99234.88;4952554;28;45552;-74
2023/10/30 10:19:49;;;;;;;;;11.67;11.67;;;;;14.04;100.00;99243.69;4937286;28;45905;-74
2023/10/30 10:22:31;;;;;;;;;8.00;8.00;;;;;13.92;100.00;99235.66;4954755;28;45968;-74
2023/10/30 10:24:59;;;;;;;;;12.00;9.67;;;;;13.93;100.00;99237.31;4936042;28;45906;-74
2023/10/30 10:27:25;;;;;;;;;10.33;9.00;;;;;13.94;100.00;99219.69;4935176;28;45440;-73
2023/10/30 10:29:53;;;;;;;;;15.33;13.00;;;;;13.94;100.00;99231.53;4953825;28;45670;-72
2023/10/30 10:32:19;;;;;;;;;10.33;9.67;;;;;14.02;100.00;99227.44;4940250;28;45451;-73
2023/10/30 10:34:50;;;;;;;;;9.33;9.00;;;;;14.04;100.00;99232.69;4956982;28;45795;-74
2023/10/30 10:37:18;;;;;;;;;8.33;7.00;;;;;14.08;100.00;99225.53;4958034;28;45295;-72
2023/10/30 10:39:50;;;;;;;;;10.00;8.00;;;;;14.05;100.00;99209.53;4956755;28;45868;-72
2023/10/30 10:42:20;;;;;;;;;9.00;7.67;;;;;14.07;100.00;99219.19;4934650;28;45744;-72
2023/10/30 10:44:47;;;;;;;;;7.33;7.33;;;;;13.85;100.00;99211.09;4942964;28;45689;-71
2023/10/30 10:47:12;;;;;;;;;15.33;8.33;;;;;14.10;100.00;99226.94;4973906;28;42071;-73
2023/10/30 10:49:38;;;;;;;;;11.00;7.00;;;;;14.22;100.00;99215.66;4972477;28;28593;-72
2023/10/30 10:52:14;;;;;;;;;4.33;3.33;;;;;14.32;100.00;99191.97;4971662;28;28441;-73
2023/10/30 10:54:52;;;;;;;;;10.00;7.00;;;;;14.41;100.00;99182.88;4959064;28;30876;-73
2023/10/30 10:57:20;;;;;;;;;8.67;6.33;;;;;14.45;100.00;99174.91;4979785;28;28667;-71
2023/10/30 10:59:53;;;;;;;;;8.00;6.67;;;;;14.51;100.00;99171.06;4974142;28;28527;-74
2023/10/30 11:02:24;;;;;;;;;6.33;6.33;;;;;14.63;100.00;99166.13;4974353;28;28439;-73
2023/10/30 11:04:51;;;;;;;;;8.00;5.67;;;;;14.71;100.00;99158.41;4959546;28;30902;-72
2023/10/30 11:07:55;;;;;;;;;5.67;4.00;;;;;14.69;100.00;99147.63;4959434;28;29629;-73
2023/10/30 11:10:29;;;;;;;;;9.67;7.00;;;;;14.64;100.00;99140.19;4912402;29;28407;-74
2023/10/30 11:13:29;;;;;;;;;7.67;6.00;;;;;14.65;100.00;99141.00;4948184;28;28431;-72
2023/10/30 11:16:16;;;;;;;;;10.00;8.00;;;;;14.88;100.00;99145.16;4944545;28;29515;-73
2023/10/30 11:18:41;;;;;;;;;10.00;8.00;;;;;14.96;100.00;99138.25;4954193;28;28469;-71
2023/10/30 11:21:16;;;;;;;;;7.00;5.00;;;;;15.05;100.00;99144.03;4942907;28;28337;-72